Engineer — WDE2824 — position and weather

sailwx.info

Track history (hours):
 
Tides and Currents Weather Stations Pressure Air Temp Water Temp Dewpoint Dewpoint Depression Visibility Wind Speed Wind Dir Waves Ship Positions

Engineer

Owner: Skiffs Creek Towing Inc., Yorktown, VA. More information available from US FCC via Universal Licensing System.

Last reported at 2017-Oct-22 10:34 UTC. Time now 2017-Oct-22 23:05 UTC.
Position N 40°09' W 073°23'.

Length 15 m; draft 2 m.

Type: Tug. MMSI: 338142195.

Date/timePositionNaut miles runAvg speedWind from/ knotsBaromVisibWave heightAir tempDewpointWater temp
2017-Oct-22 10:34N 40°09' W 073°23'0 1.5
2017-Oct-22 10:29N 40°09' W 073°23'1811.5
2017-Oct-22 08:56N 40°26' W 073°30'912.4
2017-Oct-22 08:11N 40°34' W 073°35'9 0.8
2017-Oct-21 20:48N 40°34' W 073°47'61921.3
2017-Oct-20 15:42N 32°07' W 081°08'0 0.0
2017-Oct-20 15:30N 32°07' W 081°08'0 0.0
2017-Oct-20 15:00N 32°07' W 081°08'0 0.0
2017-Oct-20 14:30N 32°07' W 081°08'0 0.0
2017-Oct-20 13:30N 32°07' W 081°08'0 0.0
2017-Oct-20 13:00N 32°07' W 081°08'0 0.0
2017-Oct-20 12:30N 32°07' W 081°08'0 0.0
2017-Oct-20 12:00N 32°07' W 081°08'37126.3
2017-Oct-19 21:52N 36°52' W 076°19'2 5.4
2017-Oct-19 21:30N 36°50' W 076°18'3 5.1
2017-Oct-19 21:00N 36°47' W 076°18'2 4.4
2017-Oct-19 20:28N 36°45' W 076°18'0 0.6
2017-Oct-19 19:59N 36°45' W 076°18'367743.6
2017-Oct-19 19:30N 32°07' W 081°08'3673439.2
2017-Oct-19 19:23N 36°45' W 076°18'367958.4
2017-Oct-19 19:00N 32°07' W 081°08'36721649.9
2017-Oct-19 18:59N 36°45' W 076°18'367767.8
2017-Oct-19 18:31N 32°07' W 081°08'3675079.4
2017-Oct-19 18:26N 36°45' W 076°18'367847.1
2017-Oct-19 18:00N 32°07' W 081°08'3676259.0
2017-Oct-19 17:57N 36°45' W 076°18'367831.1
2017-Oct-19 17:30N 32°07' W 081°08'367913.3
2017-Oct-19 17:06N 36°45' W 076°18'3673741.1
2017-Oct-19 17:00N 32°07' W 081°08'36747162.9
2017-Oct-19 17:00N 36°45' W 076°18'367744.8
2017-Oct-19 16:30N 32°07' W 081°08'3674559.9
2017-Oct-19 16:25N 36°45' W 076°18'367876.3
2017-Oct-19 16:00N 32°07' W 081°08'3688227.4
2017-Oct-19 15:58N 36°47' W 076°18'368807.7
2017-Oct-19 15:30N 32°07' W 081°08'370147966.7
2017-Oct-19 15:30N 36°49' W 076°17'370743.6
2017-Oct-19 15:00N 32°07' W 081°08'372133863.3
2017-Oct-19 15:00N 36°50' W 076°16'372747.8
2017-Oct-19 14:30N 32°07' W 081°08'3718358.2
2017-Oct-19 14:28N 36°50' W 076°17'371815.4
2017-Oct-19 14:00N 32°07' W 081°08'369132945.7
2017-Oct-19 14:00N 36°48' W 076°18'369742.7
2017-Oct-19 13:30N 32°07' W 081°08'37134224.7
2017-Oct-19 13:30N 36°50' W 076°18'371766.7
2017-Oct-19 13:01N 32°07' W 081°08'0 0.0
2017-Oct-19 12:31N 32°07' W 081°08'0 0.0
2017-Oct-19 12:00N 32°07' W 081°08'0 0.0
2017-Oct-19 11:30N 32°07' W 081°08'0 0.0
2017-Oct-18 18:46N 32°07' W 081°08'0 0.0
2017-Oct-18 18:30N 32°07' W 081°08'0 0.0
2017-Oct-18 18:00N 32°07' W 081°08'0 0.0
2017-Oct-18 17:30N 32°07' W 081°08'0 0.0
2017-Oct-18 17:00N 32°07' W 081°08'0 0.0
2017-Oct-18 16:30N 32°07' W 081°08'0 0.0
2017-Oct-18 16:00N 32°07' W 081°08'0 0.0
2017-Oct-18 15:30N 32°07' W 081°08'0 0.2
2017-Oct-18 15:00N 32°07' W 081°08'1 1.3
2017-Oct-18 14:00N 32°06' W 081°07'2 3.4
2017-Oct-18 13:30N 32°05' W 081°05'1 1.2
2017-Oct-18 13:00N 32°05' W 081°04'  
Track history (hours):
 
Tides and Currents Weather Stations Pressure Air Temp Water Temp Dewpoint Dewpoint Depression Visibility Wind Speed Wind Dir Waves Ship Positions

Engineer

Owner: Skiffs Creek Towing Inc., Yorktown, VA. More information available from US FCC via Universal Licensing System.

Last reported at 2017-Oct-22 10:34 UTC. Time now 2017-Oct-22 23:05 UTC.
Position N 40°09' W 073°23'.

Length 15 m; draft 2 m.

Type: Tug. MMSI: 338142195.

Date/timePositionNaut miles runAvg speedWind from/ knotsBaromVisibWave heightAir tempDewpointWater temp
2017-Oct-22 10:34N 40°09' W 073°23'0 1.5
2017-Oct-22 10:29N 40°09' W 073°23'1811.5
2017-Oct-22 08:56N 40°26' W 073°30'912.4
2017-Oct-22 08:11N 40°34' W 073°35'9 0.8
2017-Oct-21 20:48N 40°34' W 073°47'61921.3
2017-Oct-20 15:42N 32°07' W 081°08'0 0.0
2017-Oct-20 15:30N 32°07' W 081°08'0 0.0
2017-Oct-20 15:00N 32°07' W 081°08'0 0.0
2017-Oct-20 14:30N 32°07' W 081°08'0 0.0
2017-Oct-20 13:30N 32°07' W 081°08'0 0.0
2017-Oct-20 13:00N 32°07' W 081°08'0 0.0
2017-Oct-20 12:30N 32°07' W 081°08'0 0.0
2017-Oct-20 12:00N 32°07' W 081°08'37126.3
2017-Oct-19 21:52N 36°52' W 076°19'2 5.4
2017-Oct-19 21:30N 36°50' W 076°18'3 5.1
2017-Oct-19 21:00N 36°47' W 076°18'2 4.4
2017-Oct-19 20:28N 36°45' W 076°18'0 0.6
2017-Oct-19 19:59N 36°45' W 076°18'367743.6
2017-Oct-19 19:30N 32°07' W 081°08'3673439.2
2017-Oct-19 19:23N 36°45' W 076°18'367958.4
2017-Oct-19 19:00N 32°07' W 081°08'36721649.9
2017-Oct-19 18:59N 36°45' W 076°18'367767.8
2017-Oct-19 18:31N 32°07' W 081°08'3675079.4
2017-Oct-19 18:26N 36°45' W 076°18'367847.1
2017-Oct-19 18:00N 32°07' W 081°08'3676259.0
2017-Oct-19 17:57N 36°45' W 076°18'367831.1
2017-Oct-19 17:30N 32°07' W 081°08'367913.3
2017-Oct-19 17:06N 36°45' W 076°18'3673741.1
2017-Oct-19 17:00N 32°07' W 081°08'36747162.9
2017-Oct-19 17:00N 36°45' W 076°18'367744.8
2017-Oct-19 16:30N 32°07' W 081°08'3674559.9
2017-Oct-19 16:25N 36°45' W 076°18'367876.3
2017-Oct-19 16:00N 32°07' W 081°08'3688227.4
2017-Oct-19 15:58N 36°47' W 076°18'368807.7
2017-Oct-19 15:30N 32°07' W 081°08'370147966.7
2017-Oct-19 15:30N 36°49' W 076°17'370743.6
2017-Oct-19 15:00N 32°07' W 081°08'372133863.3
2017-Oct-19 15:00N 36°50' W 076°16'372747.8
2017-Oct-19 14:30N 32°07' W 081°08'3718358.2
2017-Oct-19 14:28N 36°50' W 076°17'371815.4
2017-Oct-19 14:00N 32°07' W 081°08'369132945.7
2017-Oct-19 14:00N 36°48' W 076°18'369742.7
2017-Oct-19 13:30N 32°07' W 081°08'37134224.7
2017-Oct-19 13:30N 36°50' W 076°18'371766.7
2017-Oct-19 13:01N 32°07' W 081°08'0 0.0
2017-Oct-19 12:31N 32°07' W 081°08'0 0.0
2017-Oct-19 12:00N 32°07' W 081°08'0 0.0
2017-Oct-19 11:30N 32°07' W 081°08'0 0.0
2017-Oct-18 18:46N 32°07' W 081°08'0 0.0
2017-Oct-18 18:30N 32°07' W 081°08'0 0.0
2017-Oct-18 18:00N 32°07' W 081°08'0 0.0
2017-Oct-18 17:30N 32°07' W 081°08'0 0.0
2017-Oct-18 17:00N 32°07' W 081°08'0 0.0
2017-Oct-18 16:30N 32°07' W 081°08'0 0.0
2017-Oct-18 16:00N 32°07' W 081°08'0 0.0
2017-Oct-18 15:30N 32°07' W 081°08'0 0.2
2017-Oct-18 15:00N 32°07' W 081°08'1 1.3
2017-Oct-18 14:00N 32°06' W 081°07'2 3.4
2017-Oct-18 13:30N 32°05' W 081°05'1 1.2
2017-Oct-18 13:00N 32°05' W 081°04'  

Dump ship's entire track history